sensor_id;sensor_type;location;lat;lon;timestamp;P1;durP1;ratioP1;P2;durP2;ratioP2
5722;SDS011;2886;49.722;8.612;2023-06-26T00:01:16;9.17;;;4.70;;
5722;SDS011;2886;49.722;8.612;2023-06-26T00:03:46;6.60;;;4.60;;
5722;SDS011;2886;49.722;8.612;2023-06-26T00:06:11;8.47;;;5.40;;
5722;SDS011;2886;49.722;8.612;2023-06-26T00:08:37;5.57;;;4.20;;
5722;SDS011;2886;49.722;8.612;2023-06-26T00:11:03;8.40;;;4.97;;
5722;SDS011;2886;49.722;8.612;2023-06-26T00:13:29;9.67;;;4.77;;
5722;SDS011;2886;49.722;8.612;2023-06-26T00:15:54;5.30;;;4.43;;
5722;SDS011;2886;49.722;8.612;2023-06-26T00:18:20;6.87;;;4.07;;
5722;SDS011;2886;49.722;8.612;2023-06-26T00:20:46;6.10;;;4.70;;
5722;SDS011;2886;49.722;8.612;2023-06-26T00:23:12;5.77;;;4.33;;
5722;SDS011;2886;49.722;8.612;2023-06-26T00:25:38;6.43;;;4.20;;
5722;SDS011;2886;49.722;8.612;2023-06-26T00:28:03;6.80;;;4.40;;
5722;SDS011;2886;49.722;8.612;2023-06-26T00:30:29;8.17;;;4.90;;
5722;SDS011;2886;49.722;8.612;2023-06-26T00:32:56;5.03;;;3.93;;
5722;SDS011;2886;49.722;8.612;2023-06-26T00:35:21;5.83;;;4.37;;
5722;SDS011;2886;49.722;8.612;2023-06-26T00:37:47;10.20;;;4.50;;
5722;SDS011;2886;49.722;8.612;2023-06-26T00:40:13;8.20;;;4.20;;
5722;SDS011;2886;49.722;8.612;2023-06-26T00:42:38;7.70;;;4.90;;
5722;SDS011;2886;49.722;8.612;2023-06-26T00:45:04;9.37;;;4.60;;
5722;SDS011;2886;49.722;8.612;2023-06-26T00:47:30;8.97;;;4.70;;
5722;SDS011;2886;49.722;8.612;2023-06-26T00:49:56;12.00;;;5.17;;
5722;SDS011;2886;49.722;8.612;2023-06-26T00:52:22;7.80;;;4.50;;
5722;SDS011;2886;49.722;8.612;2023-06-26T00:54:48;6.80;;;4.80;;
5722;SDS011;2886;49.722;8.612;2023-06-26T00:57:16;7.13;;;4.60;;
5722;SDS011;2886;49.722;8.612;2023-06-26T00:59:42;8.10;;;4.97;;
5722;SDS011;2886;49.722;8.612;2023-06-26T01:02:08;7.57;;;4.53;;
5722;SDS011;2886;49.722;8.612;2023-06-26T01:04:34;6.00;;;5.03;;
5722;SDS011;2886;49.722;8.612;2023-06-26T01:07:01;6.43;;;4.00;;
5722;SDS011;2886;49.722;8.612;2023-06-26T01:09:28;5.47;;;4.97;;
5722;SDS011;2886;49.722;8.612;2023-06-26T01:11:54;7.40;;;4.20;;
5722;SDS011;2886;49.722;8.612;2023-06-26T01:14:20;7.83;;;4.77;;
5722;SDS011;2886;49.722;8.612;2023-06-26T01:16:46;5.70;;;4.27;;
5722;SDS011;2886;49.722;8.612;2023-06-26T01:19:23;7.70;;;4.77;;
5722;SDS011;2886;49.722;8.612;2023-06-26T01:21:51;7.40;;;4.00;;
5722;SDS011;2886;49.722;8.612;2023-06-26T01:24:22;6.00;;;4.40;;
5722;SDS011;2886;49.722;8.612;2023-06-26T01:26:52;9.10;;;4.70;;
5722;SDS011;2886;49.722;8.612;2023-06-26T01:29:18;6.60;;;4.53;;
5722;SDS011;2886;49.722;8.612;2023-06-26T01:31:45;8.00;;;4.13;;
5722;SDS011;2886;49.722;8.612;2023-06-26T01:34:17;12.03;;;4.20;;
5722;SDS011;2886;49.722;8.612;2023-06-26T01:36:46;6.57;;;3.90;;
5722;SDS011;2886;49.722;8.612;2023-06-26T01:39:15;4.43;;;3.63;;
5722;SDS011;2886;49.722;8.612;2023-06-26T01:41:44;6.97;;;4.87;;
5722;SDS011;2886;49.722;8.612;2023-06-26T01:44:27;5.03;;;4.23;;
5722;SDS011;2886;49.722;8.612;2023-06-26T01:47:01;11.87;;;4.80;;
5722;SDS011;2886;49.722;8.612;2023-06-26T01:49:33;6.40;;;4.63;;
5722;SDS011;2886;49.722;8.612;2023-06-26T01:52:20;6.10;;;4.13;;
5722;SDS011;2886;49.722;8.612;2023-06-26T01:58:10;6.70;;;4.30;;
5722;SDS011;2886;49.722;8.612;2023-06-26T02:00:38;6.07;;;4.37;;
5722;SDS011;2886;49.722;8.612;2023-06-26T02:03:04;7.07;;;4.23;;
5722;SDS011;2886;49.722;8.612;2023-06-26T02:05:31;5.80;;;4.50;;
5722;SDS011;2886;49.722;8.612;2023-06-26T02:07:57;8.27;;;5.20;;
5722;SDS011;2886;49.722;8.612;2023-06-26T02:10:23;6.57;;;4.70;;
5722;SDS011;2886;49.722;8.612;2023-06-26T02:12:48;8.43;;;5.80;;
5722;SDS011;2886;49.722;8.612;2023-06-26T02:15:14;8.53;;;5.47;;
5722;SDS011;2886;49.722;8.612;2023-06-26T02:17:40;6.37;;;4.70;;
5722;SDS011;2886;49.722;8.612;2023-06-26T02:20:06;14.43;;;6.00;;
5722;SDS011;2886;49.722;8.612;2023-06-26T02:22:34;7.40;;;5.37;;
5722;SDS011;2886;49.722;8.612;2023-06-26T02:24:59;7.30;;;5.10;;
5722;SDS011;2886;49.722;8.612;2023-06-26T02:27:25;8.23;;;5.37;;
5722;SDS011;2886;49.722;8.612;2023-06-26T02:29:51;10.40;;;4.40;;
5722;SDS011;2886;49.722;8.612;2023-06-26T02:32:16;6.27;;;4.43;;
5722;SDS011;2886;49.722;8.612;2023-06-26T02:34:42;9.73;;;5.67;;
5722;SDS011;2886;49.722;8.612;2023-06-26T02:37:07;6.83;;;5.03;;
5722;SDS011;2886;49.722;8.612;2023-06-26T02:39:33;7.83;;;5.80;;
5722;SDS011;2886;49.722;8.612;2023-06-26T02:41:59;8.27;;;5.37;;
5722;SDS011;2886;49.722;8.612;2023-06-26T02:44:25;8.07;;;5.40;;
5722;SDS011;2886;49.722;8.612;2023-06-26T02:46:51;6.17;;;4.40;;
5722;SDS011;2886;49.722;8.612;2023-06-26T02:49:17;7.60;;;5.10;;
5722;SDS011;2886;49.722;8.612;2023-06-26T02:51:43;6.40;;;5.03;;
5722;SDS011;2886;49.722;8.612;2023-06-26T02:54:08;6.70;;;5.13;;
5722;SDS011;2886;49.722;8.612;2023-06-26T02:56:34;8.43;;;5.43;;
5722;SDS011;2886;49.722;8.612;2023-06-26T02:59:00;9.43;;;5.50;;
5722;SDS011;2886;49.722;8.612;2023-06-26T03:01:25;7.90;;;4.80;;
5722;SDS011;2886;49.722;8.612;2023-06-26T03:03:51;7.10;;;4.93;;
5722;SDS011;2886;49.722;8.612;2023-06-26T03:06:17;6.40;;;4.47;;
5722;SDS011;2886;49.722;8.612;2023-06-26T03:08:43;8.90;;;5.00;;
5722;SDS011;2886;49.722;8.612;2023-06-26T03:11:09;7.67;;;4.83;;
5722;SDS011;2886;49.722;8.612;2023-06-26T03:13:35;9.20;;;4.77;;
5722;SDS011;2886;49.722;8.612;2023-06-26T03:16:01;5.93;;;4.40;;
5722;SDS011;2886;49.722;8.612;2023-06-26T03:18:28;9.13;;;5.47;;
5722;SDS011;2886;49.722;8.612;2023-06-26T03:20:54;8.73;;;5.10;;
5722;SDS011;2886;49.722;8.612;2023-06-26T03:23:20;6.10;;;4.10;;
5722;SDS011;2886;49.722;8.612;2023-06-26T03:25:47;5.60;;;4.60;;
5722;SDS011;2886;49.722;8.612;2023-06-26T03:28:13;5.60;;;4.30;;
5722;SDS011;2886;49.722;8.612;2023-06-26T03:30:39;8.97;;;4.77;;
5722;SDS011;2886;49.722;8.612;2023-06-26T03:33:04;6.10;;;4.30;;
5722;SDS011;2886;49.722;8.612;2023-06-26T03:35:30;9.10;;;5.70;;
5722;SDS011;2886;49.722;8.612;2023-06-26T03:37:56;6.93;;;4.33;;
5722;SDS011;2886;49.722;8.612;2023-06-26T03:40:22;7.37;;;4.33;;
5722;SDS011;2886;49.722;8.612;2023-06-26T03:42:48;6.97;;;4.20;;
5722;SDS011;2886;49.722;8.612;2023-06-26T03:45:14;13.80;;;5.00;;
5722;SDS011;2886;49.722;8.612;2023-06-26T03:47:39;9.70;;;4.47;;
5722;SDS011;2886;49.722;8.612;2023-06-26T03:50:05;7.90;;;4.70;;
5722;SDS011;2886;49.722;8.612;2023-06-26T03:52:31;11.73;;;4.47;;
5722;SDS011;2886;49.722;8.612;2023-06-26T03:54:57;7.40;;;4.97;;
5722;SDS011;2886;49.722;8.612;2023-06-26T03:57:23;5.90;;;4.33;;
5722;SDS011;2886;49.722;8.612;2023-06-26T03:59:49;8.17;;;4.80;;
5722;SDS011;2886;49.722;8.612;2023-06-26T04:02:15;7.10;;;4.53;;
5722;SDS011;2886;49.722;8.612;2023-06-26T04:04:40;7.50;;;4.57;;
5722;SDS011;2886;49.722;8.612;2023-06-26T04:07:06;6.83;;;4.07;;
5722;SDS011;2886;49.722;8.612;2023-06-26T04:09:32;6.03;;;4.20;;
5722;SDS011;2886;49.722;8.612;2023-06-26T04:11:59;5.77;;;4.10;;
5722;SDS011;2886;49.722;8.612;2023-06-26T04:14:25;5.77;;;4.37;;
5722;SDS011;2886;49.722;8.612;2023-06-26T04:16:51;6.47;;;4.30;;
5722;SDS011;2886;49.722;8.612;2023-06-26T04:19:16;4.93;;;4.07;;
5722;SDS011;2886;49.722;8.612;2023-06-26T04:21:42;7.50;;;4.90;;
5722;SDS011;2886;49.722;8.612;2023-06-26T04:24:08;7.87;;;4.40;;
5722;SDS011;2886;49.722;8.612;2023-06-26T04:26:34;7.73;;;5.03;;
5722;SDS011;2886;49.722;8.612;2023-06-26T04:28:59;7.17;;;4.67;;
5722;SDS011;2886;49.722;8.612;2023-06-26T04:31:25;7.30;;;4.33;;
5722;SDS011;2886;49.722;8.612;2023-06-26T04:33:51;6.77;;;4.50;;
5722;SDS011;2886;49.722;8.612;2023-06-26T04:36:19;5.67;;;4.13;;
5722;SDS011;2886;49.722;8.612;2023-06-26T04:38:45;8.67;;;5.10;;
5722;SDS011;2886;49.722;8.612;2023-06-26T04:41:13;5.13;;;4.13;;
5722;SDS011;2886;49.722;8.612;2023-06-26T04:43:39;7.07;;;5.00;;
5722;SDS011;2886;49.722;8.612;2023-06-26T04:46:05;6.33;;;4.50;;
5722;SDS011;2886;49.722;8.612;2023-06-26T04:48:31;7.90;;;4.90;;
5722;SDS011;2886;49.722;8.612;2023-06-26T04:50:57;9.20;;;4.63;;
5722;SDS011;2886;49.722;8.612;2023-06-26T04:53:24;5.80;;;4.67;;
5722;SDS011;2886;49.722;8.612;2023-06-26T04:55:50;7.57;;;4.60;;
5722;SDS011;2886;49.722;8.612;2023-06-26T04:58:16;7.00;;;4.90;;
5722;SDS011;2886;49.722;8.612;2023-06-26T05:00:42;7.40;;;4.60;;
5722;SDS011;2886;49.722;8.612;2023-06-26T05:03:12;8.43;;;4.93;;
5722;SDS011;2886;49.722;8.612;2023-06-26T05:05:38;10.63;;;5.00;;
5722;SDS011;2886;49.722;8.612;2023-06-26T05:08:17;9.17;;;4.97;;
5722;SDS011;2886;49.722;8.612;2023-06-26T05:10:46;7.73;;;5.00;;
5722;SDS011;2886;49.722;8.612;2023-06-26T05:13:12;8.17;;;4.63;;
5722;SDS011;2886;49.722;8.612;2023-06-26T05:15:40;5.60;;;4.53;;
5722;SDS011;2886;49.722;8.612;2023-06-26T05:18:07;7.80;;;4.60;;
5722;SDS011;2886;49.722;8.612;2023-06-26T05:20:33;6.97;;;4.73;;
5722;SDS011;2886;49.722;8.612;2023-06-26T05:23:00;16.87;;;6.00;;
5722;SDS011;2886;49.722;8.612;2023-06-26T05:25:30;9.87;;;5.97;;
5722;SDS011;2886;49.722;8.612;2023-06-26T05:27:56;6.93;;;4.87;;
5722;SDS011;2886;49.722;8.612;2023-06-26T05:30:23;6.93;;;4.40;;
5722;SDS011;2886;49.722;8.612;2023-06-26T05:32:51;5.93;;;4.57;;
5722;SDS011;2886;49.722;8.612;2023-06-26T05:35:17;9.63;;;4.70;;
5722;SDS011;2886;49.722;8.612;2023-06-26T05:37:45;7.50;;;4.43;;
5722;SDS011;2886;49.722;8.612;2023-06-26T05:40:12;5.33;;;4.00;;
5722;SDS011;2886;49.722;8.612;2023-06-26T05:42:38;5.97;;;4.47;;
5722;SDS011;2886;49.722;8.612;2023-06-26T05:45:04;5.37;;;4.33;;
5722;SDS011;2886;49.722;8.612;2023-06-26T05:47:30;6.93;;;5.33;;
5722;SDS011;2886;49.722;8.612;2023-06-26T05:49:56;8.10;;;4.23;;
5722;SDS011;2886;49.722;8.612;2023-06-26T05:52:23;5.37;;;3.90;;
5722;SDS011;2886;49.722;8.612;2023-06-26T05:54:49;6.20;;;4.30;;
5722;SDS011;2886;49.722;8.612;2023-06-26T05:57:15;8.03;;;4.30;;
5722;SDS011;2886;49.722;8.612;2023-06-26T05:59:41;7.70;;;5.00;;
5722;SDS011;2886;49.722;8.612;2023-06-26T06:02:08;6.60;;;5.10;;
5722;SDS011;2886;49.722;8.612;2023-06-26T06:04:34;6.40;;;5.17;;
5722;SDS011;2886;49.722;8.612;2023-06-26T06:07:00;7.10;;;5.40;;
5722;SDS011;2886;49.722;8.612;2023-06-26T06:09:26;9.07;;;5.70;;
5722;SDS011;2886;49.722;8.612;2023-06-26T06:11:51;9.27;;;5.60;;
5722;SDS011;2886;49.722;8.612;2023-06-26T06:14:17;11.17;;;5.70;;
5722;SDS011;2886;49.722;8.612;2023-06-26T06:16:42;10.17;;;5.87;;
5722;SDS011;2886;49.722;8.612;2023-06-26T06:19:08;6.10;;;5.27;;
5722;SDS011;2886;49.722;8.612;2023-06-26T06:21:36;13.53;;;6.40;;
5722;SDS011;2886;49.722;8.612;2023-06-26T06:24:01;9.20;;;6.00;;
5722;SDS011;2886;49.722;8.612;2023-06-26T06:26:28;6.50;;;5.30;;
5722;SDS011;2886;49.722;8.612;2023-06-26T06:28:53;7.80;;;5.63;;
5722;SDS011;2886;49.722;8.612;2023-06-26T06:31:20;7.37;;;5.40;;
5722;SDS011;2886;49.722;8.612;2023-06-26T06:33:46;7.70;;;5.70;;
5722;SDS011;2886;49.722;8.612;2023-06-26T06:36:11;8.80;;;5.63;;
5722;SDS011;2886;49.722;8.612;2023-06-26T06:38:37;7.40;;;5.23;;
5722;SDS011;2886;49.722;8.612;2023-06-26T06:41:02;7.30;;;5.50;;
5722;SDS011;2886;49.722;8.612;2023-06-26T06:43:28;6.37;;;5.43;;
5722;SDS011;2886;49.722;8.612;2023-06-26T06:45:53;7.40;;;5.33;;
5722;SDS011;2886;49.722;8.612;2023-06-26T06:48:19;8.60;;;5.77;;
5722;SDS011;2886;49.722;8.612;2023-06-26T06:50:45;7.67;;;5.57;;
5722;SDS011;2886;49.722;8.612;2023-06-26T06:53:10;6.83;;;5.30;;
5722;SDS011;2886;49.722;8.612;2023-06-26T06:55:36;6.93;;;5.70;;
5722;SDS011;2886;49.722;8.612;2023-06-26T06:58:01;8.40;;;5.07;;
5722;SDS011;2886;49.722;8.612;2023-06-26T07:00:27;7.97;;;6.33;;
5722;SDS011;2886;49.722;8.612;2023-06-26T07:02:53;8.03;;;5.37;;
5722;SDS011;2886;49.722;8.612;2023-06-26T07:05:19;6.63;;;5.70;;
5722;SDS011;2886;49.722;8.612;2023-06-26T07:07:44;6.63;;;5.70;;
5722;SDS011;2886;49.722;8.612;2023-06-26T07:10:11;10.93;;;5.80;;
5722;SDS011;2886;49.722;8.612;2023-06-26T07:12:37;7.17;;;5.40;;
5722;SDS011;2886;49.722;8.612;2023-06-26T07:15:04;7.80;;;6.00;;
5722;SDS011;2886;49.722;8.612;2023-06-26T07:17:31;7.73;;;5.90;;
5722;SDS011;2886;49.722;8.612;2023-06-26T07:19:57;11.13;;;6.23;;
5722;SDS011;2886;49.722;8.612;2023-06-26T07:22:24;8.10;;;5.50;;
5722;SDS011;2886;49.722;8.612;2023-06-26T07:24:49;9.00;;;6.37;;
5722;SDS011;2886;49.722;8.612;2023-06-26T07:27:15;10.83;;;6.03;;
5722;SDS011;2886;49.722;8.612;2023-06-26T07:29:41;6.80;;;5.30;;
5722;SDS011;2886;49.722;8.612;2023-06-26T07:32:07;8.70;;;5.97;;
5722;SDS011;2886;49.722;8.612;2023-06-26T07:34:33;9.27;;;5.60;;
5722;SDS011;2886;49.722;8.612;2023-06-26T07:36:58;9.30;;;6.20;;
5722;SDS011;2886;49.722;8.612;2023-06-26T07:39:24;9.43;;;5.73;;
5722;SDS011;2886;49.722;8.612;2023-06-26T07:41:50;9.80;;;6.57;;
5722;SDS011;2886;49.722;8.612;2023-06-26T07:44:15;8.80;;;5.70;;
5722;SDS011;2886;49.722;8.612;2023-06-26T07:46:41;7.77;;;5.73;;
5722;SDS011;2886;49.722;8.612;2023-06-26T07:49:07;10.20;;;6.20;;
5722;SDS011;2886;49.722;8.612;2023-06-26T07:51:32;8.60;;;5.77;;
5722;SDS011;2886;49.722;8.612;2023-06-26T07:53:58;10.07;;;5.70;;
5722;SDS011;2886;49.722;8.612;2023-06-26T07:56:23;5.70;;;5.10;;
5722;SDS011;2886;49.722;8.612;2023-06-26T07:58:49;12.53;;;5.97;;
5722;SDS011;2886;49.722;8.612;2023-06-26T08:01:15;8.80;;;6.03;;
5722;SDS011;2886;49.722;8.612;2023-06-26T08:03:40;13.83;;;6.30;;
5722;SDS011;2886;49.722;8.612;2023-06-26T08:06:07;9.13;;;6.10;;
5722;SDS011;2886;49.722;8.612;2023-06-26T08:08:32;9.80;;;6.10;;
5722;SDS011;2886;49.722;8.612;2023-06-26T08:10:58;7.67;;;5.73;;
5722;SDS011;2886;49.722;8.612;2023-06-26T08:13:24;8.70;;;5.87;;
5722;SDS011;2886;49.722;8.612;2023-06-26T08:15:50;7.20;;;5.70;;
5722;SDS011;2886;49.722;8.612;2023-06-26T08:18:15;10.50;;;6.37;;
5722;SDS011;2886;49.722;8.612;2023-06-26T08:20:41;7.47;;;6.00;;
5722;SDS011;2886;49.722;8.612;2023-06-26T08:23:06;10.50;;;6.00;;
5722;SDS011;2886;49.722;8.612;2023-06-26T08:25:32;7.50;;;5.67;;
5722;SDS011;2886;49.722;8.612;2023-06-26T08:27:57;8.50;;;6.27;;
5722;SDS011;2886;49.722;8.612;2023-06-26T08:30:24;9.30;;;5.93;;
5722;SDS011;2886;49.722;8.612;2023-06-26T08:32:53;8.97;;;6.00;;
5722;SDS011;2886;49.722;8.612;2023-06-26T08:35:21;7.90;;;5.83;;
5722;SDS011;2886;49.722;8.612;2023-06-26T08:37:47;6.60;;;5.70;;
5722;SDS011;2886;49.722;8.612;2023-06-26T08:40:13;9.20;;;5.70;;
5722;SDS011;2886;49.722;8.612;2023-06-26T08:42:42;7.17;;;5.60;;
5722;SDS011;2886;49.722;8.612;2023-06-26T08:45:08;8.70;;;5.50;;
5722;SDS011;2886;49.722;8.612;2023-06-26T08:47:33;11.23;;;5.50;;
5722;SDS011;2886;49.722;8.612;2023-06-26T08:52:58;6.30;;;5.47;;
5722;SDS011;2886;49.722;8.612;2023-06-26T08:55:29;26.13;;;5.97;;
5722;SDS011;2886;49.722;8.612;2023-06-26T08:57:56;6.53;;;4.93;;
5722;SDS011;2886;49.722;8.612;2023-06-26T09:00:23;14.40;;;6.23;;
5722;SDS011;2886;49.722;8.612;2023-06-26T09:02:50;8.93;;;5.43;;
5722;SDS011;2886;49.722;8.612;2023-06-26T09:05:15;7.73;;;6.40;;
5722;SDS011;2886;49.722;8.612;2023-06-26T09:07:41;7.93;;;5.97;;
5722;SDS011;2886;49.722;8.612;2023-06-26T09:10:07;16.40;;;5.43;;
5722;SDS011;2886;49.722;8.612;2023-06-26T09:12:33;10.17;;;6.23;;
5722;SDS011;2886;49.722;8.612;2023-06-26T09:14:59;7.07;;;5.80;;
5722;SDS011;2886;49.722;8.612;2023-06-26T09:17:32;7.30;;;5.53;;
5722;SDS011;2886;49.722;8.612;2023-06-26T09:20:03;8.27;;;6.00;;
5722;SDS011;2886;49.722;8.612;2023-06-26T09:22:33;7.53;;;5.47;;
5722;SDS011;2886;49.722;8.612;2023-06-26T09:25:01;8.17;;;5.30;;
5722;SDS011;2886;49.722;8.612;2023-06-26T09:27:28;8.70;;;5.13;;
5722;SDS011;2886;49.722;8.612;2023-06-26T09:29:54;5.77;;;4.83;;
5722;SDS011;2886;49.722;8.612;2023-06-26T09:32:23;7.20;;;5.00;;
5722;SDS011;2886;49.722;8.612;2023-06-26T09:34:51;9.63;;;5.13;;
5722;SDS011;2886;49.722;8.612;2023-06-26T09:37:18;7.50;;;5.67;;
5722;SDS011;2886;49.722;8.612;2023-06-26T09:39:44;11.33;;;4.90;;
5722;SDS011;2886;49.722;8.612;2023-06-26T09:42:09;6.67;;;4.67;;
5722;SDS011;2886;49.722;8.612;2023-06-26T09:44:43;6.73;;;5.20;;
5722;SDS011;2886;49.722;8.612;2023-06-26T09:47:12;6.00;;;4.93;;
5722;SDS011;2886;49.722;8.612;2023-06-26T09:49:41;7.13;;;5.03;;
5722;SDS011;2886;49.722;8.612;2023-06-26T09:52:08;5.77;;;4.90;;
5722;SDS011;2886;49.722;8.612;2023-06-26T09:54:33;4.90;;;4.40;;
5722;SDS011;2886;49.722;8.612;2023-06-26T09:57:07;6.40;;;4.73;;
5722;SDS011;2886;49.722;8.612;2023-06-26T09:59:37;7.87;;;4.70;;
5722;SDS011;2886;49.722;8.612;2023-06-26T10:02:03;5.73;;;5.13;;
5722;SDS011;2886;49.722;8.612;2023-06-26T10:04:29;7.60;;;4.80;;
5722;SDS011;2886;49.722;8.612;2023-06-26T10:06:55;5.57;;;4.70;;
5722;SDS011;2886;49.722;8.612;2023-06-26T10:09:22;5.83;;;5.27;;
5722;SDS011;2886;49.722;8.612;2023-06-26T10:11:56;5.57;;;4.80;;
5722;SDS011;2886;49.722;8.612;2023-06-26T10:14:26;6.13;;;5.23;;
5722;SDS011;2886;49.722;8.612;2023-06-26T10:16:53;5.90;;;5.30;;
5722;SDS011;2886;49.722;8.612;2023-06-26T10:19:25;5.47;;;4.93;;
5722;SDS011;2886;49.722;8.612;2023-06-26T10:21:53;12.10;;;4.80;;
5722;SDS011;2886;49.722;8.612;2023-06-26T10:24:20;5.10;;;4.50;;
5722;SDS011;2886;49.722;8.612;2023-06-26T10:26:48;6.57;;;4.80;;
5722;SDS011;2886;49.722;8.612;2023-06-26T10:29:17;5.53;;;4.97;;
5722;SDS011;2886;49.722;8.612;2023-06-26T10:31:48;9.23;;;5.17;;
5722;SDS011;2886;49.722;8.612;2023-06-26T10:34:16;7.27;;;4.90;;
5722;SDS011;2886;49.722;8.612;2023-06-26T10:36:42;6.17;;;4.63;;
5722;SDS011;2886;49.722;8.612;2023-06-26T10:39:09;7.37;;;5.07;;
5722;SDS011;2886;49.722;8.612;2023-06-26T10:41:38;6.37;;;4.93;;
5722;SDS011;2886;49.722;8.612;2023-06-26T10:46:54;5.90;;;5.23;;
5722;SDS011;2886;49.722;8.612;2023-06-26T10:49:28;10.00;;;5.10;;
5722;SDS011;2886;49.722;8.612;2023-06-26T10:52:00;6.77;;;4.53;;
5722;SDS011;2886;49.722;8.612;2023-06-26T10:54:30;7.00;;;5.20;;
5722;SDS011;2886;49.722;8.612;2023-06-26T10:56:57;5.93;;;4.50;;
5722;SDS011;2886;49.722;8.612;2023-06-26T10:59:26;6.73;;;3.90;;
5722;SDS011;2886;49.722;8.612;2023-06-26T11:01:56;5.57;;;4.40;;
5722;SDS011;2886;49.722;8.612;2023-06-26T11:07:14;5.80;;;4.60;;
5722;SDS011;2886;49.722;8.612;2023-06-26T11:15:03;7.07;;;5.00;;
5722;SDS011;2886;49.722;8.612;2023-06-26T11:17:49;5.70;;;4.50;;
5722;SDS011;2886;49.722;8.612;2023-06-26T11:20:15;6.80;;;4.80;;
5722;SDS011;2886;49.722;8.612;2023-06-26T11:22:42;8.40;;;5.40;;
5722;SDS011;2886;49.722;8.612;2023-06-26T11:25:09;6.37;;;4.97;;
5722;SDS011;2886;49.722;8.612;2023-06-26T11:27:39;5.90;;;4.00;;
5722;SDS011;2886;49.722;8.612;2023-06-26T11:30:06;9.07;;;4.47;;
5722;SDS011;2886;49.722;8.612;2023-06-26T11:32:32;6.40;;;4.60;;
5722;SDS011;2886;49.722;8.612;2023-06-26T11:34:58;5.73;;;4.40;;
5722;SDS011;2886;49.722;8.612;2023-06-26T11:37:25;5.00;;;4.50;;
5722;SDS011;2886;49.722;8.612;2023-06-26T11:39:51;5.60;;;4.50;;
5722;SDS011;2886;49.722;8.612;2023-06-26T11:42:20;7.80;;;5.43;;
5722;SDS011;2886;49.722;8.612;2023-06-26T11:44:46;6.00;;;4.50;;
5722;SDS011;2886;49.722;8.612;2023-06-26T11:47:18;6.60;;;4.70;;
5722;SDS011;2886;49.722;8.612;2023-06-26T11:49:46;6.57;;;4.77;;
5722;SDS011;2886;49.722;8.612;2023-06-26T11:52:13;6.00;;;4.10;;
5722;SDS011;2886;49.722;8.612;2023-06-26T11:54:39;5.73;;;4.30;;
5722;SDS011;2886;49.722;8.612;2023-06-26T11:57:06;5.73;;;4.40;;
5722;SDS011;2886;49.722;8.612;2023-06-26T11:59:35;5.93;;;4.83;;
5722;SDS011;2886;49.722;8.612;2023-06-26T12:02:05;9.53;;;4.20;;
5722;SDS011;2886;49.722;8.612;2023-06-26T12:04:36;8.97;;;4.50;;
5722;SDS011;2886;49.722;8.612;2023-06-26T12:07:04;7.73;;;4.27;;
5722;SDS011;2886;49.722;8.612;2023-06-26T12:09:32;7.50;;;4.70;;
5722;SDS011;2886;49.722;8.612;2023-06-26T12:11:58;4.97;;;4.20;;
5722;SDS011;2886;49.722;8.612;2023-06-26T12:14:25;6.17;;;4.30;;
5722;SDS011;2886;49.722;8.612;2023-06-26T12:16:53;13.50;;;4.57;;
5722;SDS011;2886;49.722;8.612;2023-06-26T12:19:24;4.90;;;4.00;;
5722;SDS011;2886;49.722;8.612;2023-06-26T12:21:53;4.67;;;4.20;;
5722;SDS011;2886;49.722;8.612;2023-06-26T12:24:21;5.13;;;4.40;;
5722;SDS011;2886;49.722;8.612;2023-06-26T12:26:51;5.37;;;4.70;;
5722;SDS011;2886;49.722;8.612;2023-06-26T12:29:19;5.80;;;4.23;;
5722;SDS011;2886;49.722;8.612;2023-06-26T12:31:50;5.60;;;3.90;;
5722;SDS011;2886;49.722;8.612;2023-06-26T12:34:20;7.80;;;4.17;;
5722;SDS011;2886;49.722;8.612;2023-06-26T12:36:52;6.27;;;4.50;;
5722;SDS011;2886;49.722;8.612;2023-06-26T12:39:19;9.10;;;5.13;;
5722;SDS011;2886;49.722;8.612;2023-06-26T12:41:57;8.60;;;4.90;;
5722;SDS011;2886;49.722;8.612;2023-06-26T12:44:25;5.53;;;4.50;;
5722;SDS011;2886;49.722;8.612;2023-06-26T12:46:59;12.13;;;5.10;;
5722;SDS011;2886;49.722;8.612;2023-06-26T12:49:44;5.87;;;4.70;;
5722;SDS011;2886;49.722;8.612;2023-06-26T12:52:14;8.27;;;5.07;;
5722;SDS011;2886;49.722;8.612;2023-06-26T12:54:42;16.93;;;5.40;;
5722;SDS011;2886;49.722;8.612;2023-06-26T12:57:09;10.33;;;5.17;;
5722;SDS011;2886;49.722;8.612;2023-06-26T12:59:38;6.13;;;4.77;;
5722;SDS011;2886;49.722;8.612;2023-06-26T13:02:04;7.33;;;5.17;;
5722;SDS011;2886;49.722;8.612;2023-06-26T13:04:30;7.60;;;5.10;;
5722;SDS011;2886;49.722;8.612;2023-06-26T13:06:56;8.47;;;4.73;;
5722;SDS011;2886;49.722;8.612;2023-06-26T13:09:22;7.83;;;5.60;;
5722;SDS011;2886;49.722;8.612;2023-06-26T13:11:50;8.33;;;5.03;;
5722;SDS011;2886;49.722;8.612;2023-06-26T13:14:16;7.87;;;6.23;;
5722;SDS011;2886;49.722;8.612;2023-06-26T13:16:41;8.27;;;6.03;;
5722;SDS011;2886;49.722;8.612;2023-06-26T13:19:07;10.47;;;6.60;;
5722;SDS011;2886;49.722;8.612;2023-06-26T13:21:33;7.70;;;6.27;;
5722;SDS011;2886;49.722;8.612;2023-06-26T13:23:59;8.40;;;6.33;;
5722;SDS011;2886;49.722;8.612;2023-06-26T13:26:25;7.47;;;5.70;;
5722;SDS011;2886;49.722;8.612;2023-06-26T13:28:51;7.43;;;5.77;;
5722;SDS011;2886;49.722;8.612;2023-06-26T13:31:17;8.57;;;5.90;;
5722;SDS011;2886;49.722;8.612;2023-06-26T13:33:44;5.30;;;4.60;;
5722;SDS011;2886;49.722;8.612;2023-06-26T13:36:10;7.63;;;3.97;;
5722;SDS011;2886;49.722;8.612;2023-06-26T13:38:36;5.03;;;3.70;;
5722;SDS011;2886;49.722;8.612;2023-06-26T13:41:02;4.60;;;3.60;;
5722;SDS011;2886;49.722;8.612;2023-06-26T13:43:29;6.27;;;3.57;;
5722;SDS011;2886;49.722;8.612;2023-06-26T13:45:55;9.80;;;3.13;;
5722;SDS011;2886;49.722;8.612;2023-06-26T13:48:21;14.97;;;3.47;;
5722;SDS011;2886;49.722;8.612;2023-06-26T13:50:49;4.53;;;3.17;;
5722;SDS011;2886;49.722;8.612;2023-06-26T13:53:16;3.63;;;2.73;;
5722;SDS011;2886;49.722;8.612;2023-06-26T13:55:41;4.20;;;2.73;;
5722;SDS011;2886;49.722;8.612;2023-06-26T13:58:08;9.57;;;3.07;;
5722;SDS011;2886;49.722;8.612;2023-06-26T14:00:34;3.13;;;2.83;;
5722;SDS011;2886;49.722;8.612;2023-06-26T14:03:04;3.60;;;2.73;;
5722;SDS011;2886;49.722;8.612;2023-06-26T14:05:31;6.60;;;2.67;;
5722;SDS011;2886;49.722;8.612;2023-06-26T14:07:57;2.73;;;2.20;;
5722;SDS011;2886;49.722;8.612;2023-06-26T14:10:23;3.30;;;2.53;;
5722;SDS011;2886;49.722;8.612;2023-06-26T14:12:49;2.87;;;2.30;;
5722;SDS011;2886;49.722;8.612;2023-06-26T14:15:15;2.60;;;2.40;;
5722;SDS011;2886;49.722;8.612;2023-06-26T14:17:41;3.00;;;2.33;;
5722;SDS011;2886;49.722;8.612;2023-06-26T14:20:07;4.67;;;2.43;;
5722;SDS011;2886;49.722;8.612;2023-06-26T14:22:40;7.90;;;2.37;;
5722;SDS011;2886;49.722;8.612;2023-06-26T14:25:07;3.43;;;2.43;;
5722;SDS011;2886;49.722;8.612;2023-06-26T14:27:34;3.87;;;2.40;;
5722;SDS011;2886;49.722;8.612;2023-06-26T14:30:00;2.37;;;2.00;;
5722;SDS011;2886;49.722;8.612;2023-06-26T14:32:26;3.80;;;2.10;;
5722;SDS011;2886;49.722;8.612;2023-06-26T14:34:52;9.07;;;2.87;;
5722;SDS011;2886;49.722;8.612;2023-06-26T14:37:18;4.57;;;2.40;;
5722;SDS011;2886;49.722;8.612;2023-06-26T14:39:44;10.60;;;2.30;;
5722;SDS011;2886;49.722;8.612;2023-06-26T14:42:10;2.77;;;2.03;;
5722;SDS011;2886;49.722;8.612;2023-06-26T14:44:35;6.87;;;2.60;;
5722;SDS011;2886;49.722;8.612;2023-06-26T14:47:01;5.73;;;2.57;;
5722;SDS011;2886;49.722;8.612;2023-06-26T14:49:27;2.70;;;2.40;;
5722;SDS011;2886;49.722;8.612;2023-06-26T14:51:53;2.83;;;2.20;;
5722;SDS011;2886;49.722;8.612;2023-06-26T14:54:18;3.37;;;2.43;;
5722;SDS011;2886;49.722;8.612;2023-06-26T14:56:44;4.77;;;2.20;;
5722;SDS011;2886;49.722;8.612;2023-06-26T14:59:10;3.47;;;2.23;;
5722;SDS011;2886;49.722;8.612;2023-06-26T15:01:37;3.70;;;2.67;;
5722;SDS011;2886;49.722;8.612;2023-06-26T15:04:03;5.23;;;2.07;;
5722;SDS011;2886;49.722;8.612;2023-06-26T15:06:29;5.13;;;2.33;;
5722;SDS011;2886;49.722;8.612;2023-06-26T15:08:57;5.77;;;2.20;;
5722;SDS011;2886;49.722;8.612;2023-06-26T15:11:23;3.87;;;2.20;;
5722;SDS011;2886;49.722;8.612;2023-06-26T15:13:48;5.37;;;2.40;;
5722;SDS011;2886;49.722;8.612;2023-06-26T15:16:14;7.30;;;3.10;;
5722;SDS011;2886;49.722;8.612;2023-06-26T15:18:40;3.20;;;2.33;;
5722;SDS011;2886;49.722;8.612;2023-06-26T15:21:06;3.27;;;2.00;;
5722;SDS011;2886;49.722;8.612;2023-06-26T15:23:33;3.60;;;2.00;;
5722;SDS011;2886;49.722;8.612;2023-06-26T15:25:59;12.30;;;2.17;;
5722;SDS011;2886;49.722;8.612;2023-06-26T15:28:26;4.87;;;2.30;;
5722;SDS011;2886;49.722;8.612;2023-06-26T15:30:52;4.60;;;2.10;;